sensor_id;sensor_type;location;lat;lon;timestamp;P1;durP1;ratioP1;P2;durP2;ratioP2
71435;SDS011;59251;51.326;12.370;2023-10-13T00:01:09;19.65;;;8.95;;
71435;SDS011;59251;51.326;12.370;2023-10-13T00:03:38;16.98;;;8.13;;
71435;SDS011;59251;51.326;12.370;2023-10-13T00:06:05;14.60;;;8.00;;
71435;SDS011;59251;51.326;12.370;2023-10-13T00:08:33;16.30;;;7.83;;
71435;SDS011;59251;51.326;12.370;2023-10-13T00:11:03;16.83;;;7.88;;
71435;SDS011;59251;51.326;12.370;2023-10-13T00:13:30;13.48;;;7.07;;
71435;SDS011;59251;51.326;12.370;2023-10-13T00:16:06;18.27;;;7.75;;
71435;SDS011;59251;51.326;12.370;2023-10-13T00:18:36;14.20;;;7.85;;
71435;SDS011;59251;51.326;12.370;2023-10-13T00:21:07;13.97;;;7.80;;
71435;SDS011;59251;51.326;12.370;2023-10-13T00:23:38;14.88;;;7.60;;
71435;SDS011;59251;51.326;12.370;2023-10-13T00:26:08;16.75;;;7.28;;
71435;SDS011;59251;51.326;12.370;2023-10-13T00:28:35;16.20;;;7.18;;
71435;SDS011;59251;51.326;12.370;2023-10-13T00:31:10;15.35;;;7.05;;
71435;SDS011;59251;51.326;12.370;2023-10-13T00:33:38;16.93;;;8.37;;
71435;SDS011;59251;51.326;12.370;2023-10-13T00:36:07;16.30;;;7.50;;
71435;SDS011;59251;51.326;12.370;2023-10-13T00:38:34;14.43;;;7.00;;
71435;SDS011;59251;51.326;12.370;2023-10-13T00:41:02;17.10;;;6.70;;
71435;SDS011;59251;51.326;12.370;2023-10-13T00:43:44;14.57;;;7.10;;
71435;SDS011;59251;51.326;12.370;2023-10-13T00:46:10;15.77;;;7.20;;
71435;SDS011;59251;51.326;12.370;2023-10-13T00:48:45;14.02;;;6.65;;
71435;SDS011;59251;51.326;12.370;2023-10-13T00:51:17;14.00;;;7.13;;
71435;SDS011;59251;51.326;12.370;2023-10-13T00:53:57;14.80;;;7.35;;
71435;SDS011;59251;51.326;12.370;2023-10-13T00:56:23;13.43;;;6.82;;
71435;SDS011;59251;51.326;12.370;2023-10-13T00:58:53;15.40;;;7.07;;
71435;SDS011;59251;51.326;12.370;2023-10-13T01:01:21;13.68;;;6.45;;
71435;SDS011;59251;51.326;12.370;2023-10-13T01:03:49;15.10;;;7.10;;
71435;SDS011;59251;51.326;12.370;2023-10-13T01:06:20;13.95;;;6.80;;
71435;SDS011;59251;51.326;12.370;2023-10-13T01:08:56;12.60;;;6.68;;
71435;SDS011;59251;51.326;12.370;2023-10-13T01:11:23;16.13;;;6.73;;
71435;SDS011;59251;51.326;12.370;2023-10-13T01:13:50;13.25;;;7.07;;
71435;SDS011;59251;51.326;12.370;2023-10-13T01:16:16;14.02;;;7.45;;
71435;SDS011;59251;51.326;12.370;2023-10-13T01:18:45;15.07;;;6.97;;
71435;SDS011;59251;51.326;12.370;2023-10-13T01:21:15;13.95;;;6.65;;
71435;SDS011;59251;51.326;12.370;2023-10-13T01:23:46;15.10;;;6.57;;
71435;SDS011;59251;51.326;12.370;2023-10-13T01:26:13;17.48;;;6.65;;
71435;SDS011;59251;51.326;12.370;2023-10-13T01:28:46;14.32;;;7.57;;
71435;SDS011;59251;51.326;12.370;2023-10-13T01:31:15;13.15;;;6.80;;
71435;SDS011;59251;51.326;12.370;2023-10-13T01:33:52;14.52;;;5.85;;
71435;SDS011;59251;51.326;12.370;2023-10-13T01:36:20;14.30;;;6.47;;
71435;SDS011;59251;51.326;12.370;2023-10-13T01:38:49;12.68;;;6.20;;
71435;SDS011;59251;51.326;12.370;2023-10-13T01:41:15;11.55;;;6.90;;
71435;SDS011;59251;51.326;12.370;2023-10-13T01:43:42;13.20;;;6.60;;
71435;SDS011;59251;51.326;12.370;2023-10-13T01:46:08;15.13;;;6.70;;
71435;SDS011;59251;51.326;12.370;2023-10-13T01:48:39;13.63;;;6.13;;
71435;SDS011;59251;51.326;12.370;2023-10-13T01:51:05;13.55;;;5.55;;
71435;SDS011;59251;51.326;12.370;2023-10-13T01:53:35;11.38;;;6.13;;
71435;SDS011;59251;51.326;12.370;2023-10-13T01:56:03;14.80;;;6.53;;
71435;SDS011;59251;51.326;12.370;2023-10-13T01:58:39;12.53;;;5.87;;
71435;SDS011;59251;51.326;12.370;2023-10-13T02:01:07;15.25;;;6.13;;
71435;SDS011;59251;51.326;12.370;2023-10-13T02:03:35;14.27;;;6.68;;
71435;SDS011;59251;51.326;12.370;2023-10-13T02:06:06;14.60;;;6.53;;
71435;SDS011;59251;51.326;12.370;2023-10-13T02:08:36;11.85;;;5.55;;
71435;SDS011;59251;51.326;12.370;2023-10-13T02:11:07;12.27;;;5.65;;
71435;SDS011;59251;51.326;12.370;2023-10-13T02:13:36;15.30;;;6.15;;
71435;SDS011;59251;51.326;12.370;2023-10-13T02:16:07;13.13;;;6.07;;
71435;SDS011;59251;51.326;12.370;2023-10-13T02:18:37;11.00;;;5.80;;
71435;SDS011;59251;51.326;12.370;2023-10-13T02:21:07;12.23;;;5.40;;
71435;SDS011;59251;51.326;12.370;2023-10-13T02:23:38;12.70;;;6.40;;
71435;SDS011;59251;51.326;12.370;2023-10-13T02:26:10;12.15;;;5.45;;
71435;SDS011;59251;51.326;12.370;2023-10-13T02:28:39;11.20;;;5.38;;
71435;SDS011;59251;51.326;12.370;2023-10-13T02:31:05;12.53;;;5.60;;
71435;SDS011;59251;51.326;12.370;2023-10-13T02:33:33;11.05;;;5.57;;
71435;SDS011;59251;51.326;12.370;2023-10-13T02:36:00;15.95;;;6.13;;
71435;SDS011;59251;51.326;12.370;2023-10-13T02:38:30;13.70;;;6.22;;
71435;SDS011;59251;51.326;12.370;2023-10-13T02:41:00;15.18;;;7.05;;
71435;SDS011;59251;51.326;12.370;2023-10-13T02:43:34;12.90;;;6.57;;
71435;SDS011;59251;51.326;12.370;2023-10-13T02:46:01;12.60;;;5.90;;
71435;SDS011;59251;51.326;12.370;2023-10-13T02:48:29;12.68;;;6.15;;
71435;SDS011;59251;51.326;12.370;2023-10-13T02:51:05;13.52;;;6.63;;
71435;SDS011;59251;51.326;12.370;2023-10-13T02:53:40;14.32;;;6.35;;
71435;SDS011;59251;51.326;12.370;2023-10-13T02:56:07;14.55;;;6.30;;
71435;SDS011;59251;51.326;12.370;2023-10-13T02:58:35;12.18;;;6.32;;
71435;SDS011;59251;51.326;12.370;2023-10-13T03:01:05;12.43;;;6.15;;
71435;SDS011;59251;51.326;12.370;2023-10-13T03:03:42;14.18;;;6.25;;
71435;SDS011;59251;51.326;12.370;2023-10-13T03:06:13;12.32;;;6.00;;
71435;SDS011;59251;51.326;12.370;2023-10-13T03:08:40;13.13;;;6.53;;
71435;SDS011;59251;51.326;12.370;2023-10-13T03:11:08;12.90;;;6.05;;
71435;SDS011;59251;51.326;12.370;2023-10-13T03:13:38;16.85;;;6.93;;
71435;SDS011;59251;51.326;12.370;2023-10-13T03:16:13;14.57;;;6.60;;
71435;SDS011;59251;51.326;12.370;2023-10-13T03:18:41;13.23;;;6.43;;
71435;SDS011;59251;51.326;12.370;2023-10-13T03:21:17;14.07;;;7.15;;
71435;SDS011;59251;51.326;12.370;2023-10-13T03:23:53;17.42;;;6.57;;
71435;SDS011;59251;51.326;12.370;2023-10-13T03:26:21;15.00;;;7.93;;
71435;SDS011;59251;51.326;12.370;2023-10-13T03:28:49;12.27;;;6.40;;
71435;SDS011;59251;51.326;12.370;2023-10-13T03:31:19;15.40;;;7.55;;
71435;SDS011;59251;51.326;12.370;2023-10-13T03:33:53;18.13;;;7.90;;
71435;SDS011;59251;51.326;12.370;2023-10-13T03:36:24;14.57;;;7.50;;
71435;SDS011;59251;51.326;12.370;2023-10-13T03:39:21;16.38;;;7.78;;
71435;SDS011;59251;51.326;12.370;2023-10-13T03:41:53;16.35;;;7.78;;
71435;SDS011;59251;51.326;12.370;2023-10-13T03:44:22;14.88;;;7.85;;
71435;SDS011;59251;51.326;12.370;2023-10-13T03:46:48;18.13;;;8.45;;
71435;SDS011;59251;51.326;12.370;2023-10-13T03:49:19;17.60;;;8.77;;
71435;SDS011;59251;51.326;12.370;2023-10-13T03:51:47;18.48;;;8.30;;
71435;SDS011;59251;51.326;12.370;2023-10-13T03:54:14;14.40;;;7.65;;
71435;SDS011;59251;51.326;12.370;2023-10-13T03:56:41;14.48;;;7.80;;
71435;SDS011;59251;51.326;12.370;2023-10-13T03:59:09;13.90;;;7.40;;
71435;SDS011;59251;51.326;12.370;2023-10-13T04:01:44;14.30;;;7.43;;
71435;SDS011;59251;51.326;12.370;2023-10-13T04:04:12;14.50;;;6.72;;
71435;SDS011;59251;51.326;12.370;2023-10-13T04:06:41;13.90;;;7.50;;
71435;SDS011;59251;51.326;12.370;2023-10-13T04:09:17;15.35;;;7.65;;
71435;SDS011;59251;51.326;12.370;2023-10-13T04:12:20;13.32;;;7.10;;
71435;SDS011;59251;51.326;12.370;2023-10-13T04:15:03;13.55;;;6.10;;
71435;SDS011;59251;51.326;12.370;2023-10-13T04:17:50;14.27;;;6.20;;
71435;SDS011;59251;51.326;12.370;2023-10-13T04:20:16;12.82;;;6.70;;
71435;SDS011;59251;51.326;12.370;2023-10-13T04:23:03;12.27;;;5.93;;
71435;SDS011;59251;51.326;12.370;2023-10-13T04:25:45;14.40;;;5.70;;
71435;SDS011;59251;51.326;12.370;2023-10-13T04:28:28;11.65;;;5.85;;
71435;SDS011;59251;51.326;12.370;2023-10-13T04:31:16;14.35;;;6.13;;
71435;SDS011;59251;51.326;12.370;2023-10-13T04:34:06;12.18;;;6.35;;
71435;SDS011;59251;51.326;12.370;2023-10-13T04:36:41;12.98;;;5.35;;
71435;SDS011;59251;51.326;12.370;2023-10-13T04:39:10;13.02;;;5.68;;
71435;SDS011;59251;51.326;12.370;2023-10-13T04:41:42;11.48;;;5.30;;
71435;SDS011;59251;51.326;12.370;2023-10-13T04:44:08;12.35;;;5.65;;
71435;SDS011;59251;51.326;12.370;2023-10-13T04:47:02;17.25;;;6.03;;
71435;SDS011;59251;51.326;12.370;2023-10-13T04:49:42;13.07;;;5.53;;
71435;SDS011;59251;51.326;12.370;2023-10-13T04:52:17;14.05;;;5.38;;
71435;SDS011;59251;51.326;12.370;2023-10-13T04:55:05;11.85;;;5.45;;
71435;SDS011;59251;51.326;12.370;2023-10-13T04:57:52;13.05;;;5.45;;
71435;SDS011;59251;51.326;12.370;2023-10-13T05:00:25;14.18;;;5.15;;
71435;SDS011;59251;51.326;12.370;2023-10-13T05:03:16;13.35;;;6.05;;
71435;SDS011;59251;51.326;12.370;2023-10-13T05:06:05;13.45;;;5.93;;
71435;SDS011;59251;51.326;12.370;2023-10-13T05:08:58;12.18;;;5.97;;
71435;SDS011;59251;51.326;12.370;2023-10-13T05:11:42;14.93;;;6.05;;
71435;SDS011;59251;51.326;12.370;2023-10-13T05:14:27;13.75;;;6.78;;
71435;SDS011;59251;51.326;12.370;2023-10-13T05:17:19;14.77;;;5.65;;
71435;SDS011;59251;51.326;12.370;2023-10-13T05:20:06;13.32;;;5.93;;
71435;SDS011;59251;51.326;12.370;2023-10-13T05:22:51;12.90;;;6.60;;
71435;SDS011;59251;51.326;12.370;2023-10-13T05:25:35;13.27;;;6.28;;
71435;SDS011;59251;51.326;12.370;2023-10-13T05:28:19;16.77;;;7.40;;
71435;SDS011;59251;51.326;12.370;2023-10-13T05:31:03;14.50;;;6.70;;
71435;SDS011;59251;51.326;12.370;2023-10-13T05:33:53;15.55;;;6.22;;
71435;SDS011;59251;51.326;12.370;2023-10-13T05:36:39;13.68;;;6.70;;
71435;SDS011;59251;51.326;12.370;2023-10-13T05:39:23;15.90;;;7.13;;
71435;SDS011;59251;51.326;12.370;2023-10-13T05:42:07;15.73;;;6.97;;
71435;SDS011;59251;51.326;12.370;2023-10-13T05:44:52;13.50;;;6.93;;
71435;SDS011;59251;51.326;12.370;2023-10-13T05:47:32;14.68;;;6.13;;
71435;SDS011;59251;51.326;12.370;2023-10-13T05:50:15;13.93;;;6.60;;
71435;SDS011;59251;51.326;12.370;2023-10-13T05:53:16;14.18;;;6.30;;
71435;SDS011;59251;51.326;12.370;2023-10-13T05:56:00;15.05;;;7.07;;
71435;SDS011;59251;51.326;12.370;2023-10-13T05:58:45;15.90;;;6.45;;
71435;SDS011;59251;51.326;12.370;2023-10-13T06:01:29;19.02;;;7.13;;
71435;SDS011;59251;51.326;12.370;2023-10-13T06:04:14;16.17;;;6.83;;
71435;SDS011;59251;51.326;12.370;2023-10-13T06:06:58;16.42;;;6.85;;
71435;SDS011;59251;51.326;12.370;2023-10-13T06:09:44;13.82;;;6.95;;
71435;SDS011;59251;51.326;12.370;2023-10-13T06:12:28;13.82;;;7.55;;
71435;SDS011;59251;51.326;12.370;2023-10-13T06:15:12;12.32;;;6.30;;
71435;SDS011;59251;51.326;12.370;2023-10-13T06:17:57;15.90;;;7.37;;
71435;SDS011;59251;51.326;12.370;2023-10-13T06:20:41;14.63;;;6.55;;
71435;SDS011;59251;51.326;12.370;2023-10-13T06:23:26;15.15;;;7.20;;
71435;SDS011;59251;51.326;12.370;2023-10-13T06:26:11;15.20;;;6.88;;
71435;SDS011;59251;51.326;12.370;2023-10-13T06:28:55;17.13;;;7.10;;
71435;SDS011;59251;51.326;12.370;2023-10-13T06:31:22;16.33;;;7.83;;
71435;SDS011;59251;51.326;12.370;2023-10-13T06:33:50;15.52;;;7.32;;
71435;SDS011;59251;51.326;12.370;2023-10-13T06:36:20;15.13;;;7.38;;
71435;SDS011;59251;51.326;12.370;2023-10-13T06:38:47;14.93;;;6.65;;
71435;SDS011;59251;51.326;12.370;2023-10-13T06:41:21;15.25;;;6.72;;
71435;SDS011;59251;51.326;12.370;2023-10-13T06:43:55;20.77;;;7.57;;
71435;SDS011;59251;51.326;12.370;2023-10-13T06:46:28;13.40;;;7.03;;
71435;SDS011;59251;51.326;12.370;2023-10-13T06:48:59;14.02;;;6.75;;
71435;SDS011;59251;51.326;12.370;2023-10-13T06:51:27;15.25;;;6.97;;
71435;SDS011;59251;51.326;12.370;2023-10-13T06:54:03;13.73;;;6.53;;
71435;SDS011;59251;51.326;12.370;2023-10-13T06:56:36;12.50;;;6.53;;
71435;SDS011;59251;51.326;12.370;2023-10-13T06:59:05;12.85;;;6.03;;
71435;SDS011;59251;51.326;12.370;2023-10-13T07:01:32;16.50;;;9.23;;
71435;SDS011;59251;51.326;12.370;2023-10-13T07:04:04;12.45;;;6.07;;
71435;SDS011;59251;51.326;12.370;2023-10-13T07:06:38;13.18;;;6.03;;
71435;SDS011;59251;51.326;12.370;2023-10-13T07:09:07;12.07;;;6.10;;
71435;SDS011;59251;51.326;12.370;2023-10-13T07:11:42;14.63;;;6.72;;
71435;SDS011;59251;51.326;12.370;2023-10-13T07:14:08;14.20;;;6.32;;
71435;SDS011;59251;51.326;12.370;2023-10-13T07:16:41;13.50;;;4.70;;
71435;SDS011;59251;51.326;12.370;2023-10-13T07:19:11;13.75;;;5.88;;
71435;SDS011;59251;51.326;12.370;2023-10-13T07:21:42;13.37;;;5.87;;
71435;SDS011;59251;51.326;12.370;2023-10-13T07:24:10;13.18;;;5.68;;
71435;SDS011;59251;51.326;12.370;2023-10-13T07:26:37;11.45;;;4.65;;
71435;SDS011;59251;51.326;12.370;2023-10-13T07:29:09;13.98;;;4.90;;
71435;SDS011;59251;51.326;12.370;2023-10-13T07:31:36;10.80;;;4.90;;
71435;SDS011;59251;51.326;12.370;2023-10-13T07:34:06;12.93;;;5.00;;
71435;SDS011;59251;51.326;12.370;2023-10-13T07:36:38;12.25;;;4.93;;
71435;SDS011;59251;51.326;12.370;2023-10-13T07:39:08;12.13;;;5.00;;
71435;SDS011;59251;51.326;12.370;2023-10-13T07:41:49;10.85;;;5.18;;
71435;SDS011;59251;51.326;12.370;2023-10-13T07:44:20;10.48;;;4.72;;
71435;SDS011;59251;51.326;12.370;2023-10-13T07:46:50;11.87;;;4.40;;
71435;SDS011;59251;51.326;12.370;2023-10-13T07:49:26;10.18;;;4.72;;
71435;SDS011;59251;51.326;12.370;2023-10-13T07:51:56;12.68;;;4.75;;
71435;SDS011;59251;51.326;12.370;2023-10-13T07:54:26;11.30;;;4.50;;
71435;SDS011;59251;51.326;12.370;2023-10-13T07:56:53;11.80;;;4.70;;
71435;SDS011;59251;51.326;12.370;2023-10-13T07:59:21;11.50;;;4.87;;
71435;SDS011;59251;51.326;12.370;2023-10-13T08:01:49;11.20;;;5.20;;
71435;SDS011;59251;51.326;12.370;2023-10-13T08:04:37;11.07;;;4.38;;
71435;SDS011;59251;51.326;12.370;2023-10-13T08:07:04;11.32;;;4.50;;
71435;SDS011;59251;51.326;12.370;2023-10-13T08:09:38;11.23;;;4.70;;
71435;SDS011;59251;51.326;12.370;2023-10-13T08:12:06;12.53;;;4.77;;
71435;SDS011;59251;51.326;12.370;2023-10-13T08:14:38;9.02;;;4.53;;
71435;SDS011;59251;51.326;12.370;2023-10-13T08:17:07;10.20;;;4.40;;
71435;SDS011;59251;51.326;12.370;2023-10-13T08:19:35;10.30;;;4.30;;
71435;SDS011;59251;51.326;12.370;2023-10-13T08:22:10;10.88;;;4.38;;
71435;SDS011;59251;51.326;12.370;2023-10-13T08:25:01;9.97;;;4.07;;
71435;SDS011;59251;51.326;12.370;2023-10-13T08:27:50;9.63;;;4.43;;
71435;SDS011;59251;51.326;12.370;2023-10-13T08:30:44;12.27;;;4.65;;
71435;SDS011;59251;51.326;12.370;2023-10-13T08:33:19;12.73;;;4.32;;
71435;SDS011;59251;51.326;12.370;2023-10-13T08:35:49;16.90;;;5.87;;
71435;SDS011;59251;51.326;12.370;2023-10-13T08:38:42;13.23;;;4.68;;
71435;SDS011;59251;51.326;12.370;2023-10-13T08:41:17;14.32;;;4.95;;
71435;SDS011;59251;51.326;12.370;2023-10-13T08:43:55;15.02;;;5.07;;
71435;SDS011;59251;51.326;12.370;2023-10-13T08:46:32;10.70;;;4.55;;
71435;SDS011;59251;51.326;12.370;2023-10-13T08:49:25;14.20;;;4.90;;
71435;SDS011;59251;51.326;12.370;2023-10-13T08:51:54;11.30;;;4.15;;
71435;SDS011;59251;51.326;12.370;2023-10-13T08:54:32;12.75;;;5.05;;
71435;SDS011;59251;51.326;12.370;2023-10-13T08:57:10;13.07;;;4.70;;
71435;SDS011;59251;51.326;12.370;2023-10-13T08:59:55;13.15;;;4.95;;
71435;SDS011;59251;51.326;12.370;2023-10-13T09:02:43;13.37;;;4.83;;
71435;SDS011;59251;51.326;12.370;2023-10-13T09:05:25;12.05;;;4.53;;
71435;SDS011;59251;51.326;12.370;2023-10-13T09:08:08;11.38;;;4.38;;
71435;SDS011;59251;51.326;12.370;2023-10-13T09:10:34;11.23;;;4.40;;
71435;SDS011;59251;51.326;12.370;2023-10-13T09:13:09;11.30;;;4.40;;
71435;SDS011;59251;51.326;12.370;2023-10-13T09:15:45;14.33;;;4.87;;
71435;SDS011;59251;51.326;12.370;2023-10-13T09:18:28;15.27;;;5.45;;
71435;SDS011;59251;51.326;12.370;2023-10-13T09:21:15;11.20;;;4.35;;
71435;SDS011;59251;51.326;12.370;2023-10-13T09:23:59;12.60;;;4.72;;
71435;SDS011;59251;51.326;12.370;2023-10-13T09:26:43;9.73;;;4.82;;
71435;SDS011;59251;51.326;12.370;2023-10-13T09:29:18;12.63;;;4.73;;
71435;SDS011;59251;51.326;12.370;2023-10-13T09:31:46;13.65;;;5.10;;
71435;SDS011;59251;51.326;12.370;2023-10-13T09:34:20;11.23;;;4.68;;
71435;SDS011;59251;51.326;12.370;2023-10-13T09:36:48;10.27;;;4.22;;
71435;SDS011;59251;51.326;12.370;2023-10-13T09:39:22;12.77;;;5.20;;
71435;SDS011;59251;51.326;12.370;2023-10-13T09:41:55;11.13;;;4.37;;
71435;SDS011;59251;51.326;12.370;2023-10-13T09:44:25;12.65;;;4.22;;
71435;SDS011;59251;51.326;12.370;2023-10-13T09:46:57;11.18;;;4.55;;
71435;SDS011;59251;51.326;12.370;2023-10-13T09:49:37;12.60;;;4.15;;
71435;SDS011;59251;51.326;12.370;2023-10-13T09:52:15;12.57;;;4.45;;
71435;SDS011;59251;51.326;12.370;2023-10-13T09:54:56;10.20;;;4.40;;
71435;SDS011;59251;51.326;12.370;2023-10-13T09:57:31;12.02;;;4.85;;
71435;SDS011;59251;51.326;12.370;2023-10-13T10:00:02;11.20;;;4.45;;
71435;SDS011;59251;51.326;12.370;2023-10-13T10:02:54;11.93;;;4.50;;
71435;SDS011;59251;51.326;12.370;2023-10-13T10:05:30;11.65;;;4.45;;
71435;SDS011;59251;51.326;12.370;2023-10-13T10:08:00;11.33;;;3.67;;
71435;SDS011;59251;51.326;12.370;2023-10-13T10:10:27;13.35;;;5.50;;
71435;SDS011;59251;51.326;12.370;2023-10-13T10:13:13;15.15;;;5.00;;
71435;SDS011;59251;51.326;12.370;2023-10-13T10:15:46;9.93;;;4.22;;
71435;SDS011;59251;51.326;12.370;2023-10-13T10:18:17;12.27;;;4.60;;
71435;SDS011;59251;51.326;12.370;2023-10-13T10:20:46;12.30;;;5.27;;
71435;SDS011;59251;51.326;12.370;2023-10-13T10:23:23;13.23;;;4.63;;
71435;SDS011;59251;51.326;12.370;2023-10-13T10:25:50;12.27;;;4.75;;
71435;SDS011;59251;51.326;12.370;2023-10-13T10:28:17;14.50;;;4.57;;
71435;SDS011;59251;51.326;12.370;2023-10-13T10:30:45;11.48;;;4.65;;
71435;SDS011;59251;51.326;12.370;2023-10-13T10:33:12;10.63;;;4.87;;
71435;SDS011;59251;51.326;12.370;2023-10-13T10:35:41;11.50;;;4.93;;
71435;SDS011;59251;51.326;12.370;2023-10-13T10:38:11;12.73;;;4.53;;
71435;SDS011;59251;51.326;12.370;2023-10-13T10:40:51;10.77;;;4.55;;
71435;SDS011;59251;51.326;12.370;2023-10-13T10:43:23;16.45;;;4.43;;
71435;SDS011;59251;51.326;12.370;2023-10-13T10:45:51;11.93;;;4.57;;
71435;SDS011;59251;51.326;12.370;2023-10-13T10:48:24;18.17;;;4.57;;
71435;SDS011;59251;51.326;12.370;2023-10-13T10:50:57;10.95;;;4.15;;
71435;SDS011;59251;51.326;12.370;2023-10-13T10:53:33;12.20;;;4.30;;
71435;SDS011;59251;51.326;12.370;2023-10-13T10:56:09;12.32;;;4.65;;
71435;SDS011;59251;51.326;12.370;2023-10-13T10:58:46;11.20;;;4.23;;
71435;SDS011;59251;51.326;12.370;2023-10-13T11:01:13;13.07;;;5.10;;
71435;SDS011;59251;51.326;12.370;2023-10-13T11:03:55;12.98;;;3.88;;
71435;SDS011;59251;51.326;12.370;2023-10-13T11:06:33;12.93;;;4.55;;
71435;SDS011;59251;51.326;12.370;2023-10-13T11:09:05;12.00;;;4.32;;
71435;SDS011;59251;51.326;12.370;2023-10-13T11:11:44;15.27;;;4.30;;
71435;SDS011;59251;51.326;12.370;2023-10-13T11:14:19;11.05;;;4.38;;
71435;SDS011;59251;51.326;12.370;2023-10-13T11:16:48;14.60;;;3.90;;
71435;SDS011;59251;51.326;12.370;2023-10-13T11:19:18;13.35;;;3.75;;
71435;SDS011;59251;51.326;12.370;2023-10-13T11:21:53;11.32;;;3.97;;
71435;SDS011;59251;51.326;12.370;2023-10-13T11:24:22;10.13;;;4.10;;
71435;SDS011;59251;51.326;12.370;2023-10-13T11:26:49;13.02;;;4.18;;
71435;SDS011;59251;51.326;12.370;2023-10-13T11:29:17;12.13;;;4.40;;
71435;SDS011;59251;51.326;12.370;2023-10-13T11:31:48;10.85;;;3.65;;
71435;SDS011;59251;51.326;12.370;2023-10-13T11:34:24;12.52;;;4.28;;
71435;SDS011;59251;51.326;12.370;2023-10-13T11:36:55;12.10;;;3.97;;
71435;SDS011;59251;51.326;12.370;2023-10-13T11:39:24;13.85;;;4.15;;
71435;SDS011;59251;51.326;12.370;2023-10-13T11:41:58;12.60;;;4.00;;
71435;SDS011;59251;51.326;12.370;2023-10-13T11:44:25;12.38;;;3.80;;
71435;SDS011;59251;51.326;12.370;2023-10-13T11:46:56;14.15;;;4.63;;
71435;SDS011;59251;51.326;12.370;2023-10-13T11:49:40;10.87;;;4.00;;
71435;SDS011;59251;51.326;12.370;2023-10-13T11:52:06;8.98;;;3.83;;
71435;SDS011;59251;51.326;12.370;2023-10-13T11:54:48;14.48;;;4.00;;
71435;SDS011;59251;51.326;12.370;2023-10-13T11:57:14;10.70;;;3.70;;
71435;SDS011;59251;51.326;12.370;2023-10-13T11:59:45;13.10;;;3.72;;
71435;SDS011;59251;51.326;12.370;2023-10-13T12:02:19;13.52;;;3.80;;
71435;SDS011;59251;51.326;12.370;2023-10-13T12:05:04;12.45;;;3.70;;
71435;SDS011;59251;51.326;12.370;2023-10-13T12:07:37;13.48;;;4.00;;
71435;SDS011;59251;51.326;12.370;2023-10-13T12:10:14;14.70;;;4.37;;
71435;SDS011;59251;51.326;12.370;2023-10-13T12:12:45;10.95;;;3.83;;
71435;SDS011;59251;51.326;12.370;2023-10-13T12:15:18;14.43;;;4.20;;
71435;SDS011;59251;51.326;12.370;2023-10-13T12:17:59;11.38;;;3.88;;
71435;SDS011;59251;51.326;12.370;2023-10-13T12:20:28;12.48;;;4.07;;
71435;SDS011;59251;51.326;12.370;2023-10-13T12:23:01;10.43;;;3.37;;
71435;SDS011;59251;51.326;12.370;2023-10-13T12:25:42;12.30;;;3.90;;
71435;SDS011;59251;51.326;12.370;2023-10-13T12:28:22;14.30;;;4.15;;
71435;SDS011;59251;51.326;12.370;2023-10-13T12:30:52;13.95;;;3.72;;
71435;SDS011;59251;51.326;12.370;2023-10-13T12:33:22;8.70;;;3.17;;
71435;SDS011;59251;51.326;12.370;2023-10-13T12:35:55;12.93;;;4.10;;
71435;SDS011;59251;51.326;12.370;2023-10-13T12:38:32;11.23;;;4.43;;
71435;SDS011;59251;51.326;12.370;2023-10-13T12:41:38;12.13;;;4.25;;
71435;SDS011;59251;51.326;12.370;2023-10-13T12:44:22;13.23;;;3.88;;
71435;SDS011;59251;51.326;12.370;2023-10-13T12:47:07;12.48;;;4.53;;
71435;SDS011;59251;51.326;12.370;2023-10-13T12:49:51;11.60;;;4.17;;
71435;SDS011;59251;51.326;12.370;2023-10-13T12:52:51;12.05;;;4.40;;
71435;SDS011;59251;51.326;12.370;2023-10-13T12:55:18;17.33;;;4.95;;
71435;SDS011;59251;51.326;12.370;2023-10-13T12:57:51;14.10;;;4.65;;
71435;SDS011;59251;51.326;12.370;2023-10-13T13:00:17;17.50;;;5.45;;
71435;SDS011;59251;51.326;12.370;2023-10-13T13:02:49;12.53;;;4.00;;
71435;SDS011;59251;51.326;12.370;2023-10-13T13:05:17;12.07;;;4.13;;
71435;SDS011;59251;51.326;12.370;2023-10-13T13:07:48;13.15;;;4.40;;
71435;SDS011;59251;51.326;12.370;2023-10-13T13:10:18;13.38;;;3.92;;
71435;SDS011;59251;51.326;12.370;2023-10-13T13:12:46;12.10;;;4.50;;
71435;SDS011;59251;51.326;12.370;2023-10-13T13:15:14;14.17;;;4.70;;
71435;SDS011;59251;51.326;12.370;2023-10-13T13:17:41;14.27;;;4.43;;
71435;SDS011;59251;51.326;12.370;2023-10-13T13:20:08;13.20;;;4.80;;
71435;SDS011;59251;51.326;12.370;2023-10-13T13:22:51;13.75;;;4.30;;
71435;SDS011;59251;51.326;12.370;2023-10-13T13:25:19;12.70;;;4.60;;
71435;SDS011;59251;51.326;12.370;2023-10-13T13:27:50;14.33;;;4.30;;
71435;SDS011;59251;51.326;12.370;2023-10-13T13:30:18;12.48;;;4.35;;
71435;SDS011;59251;51.326;12.370;2023-10-13T13:32:46;10.10;;;4.43;;
71435;SDS011;59251;51.326;12.370;2023-10-13T13:35:13;13.13;;;4.10;;
71435;SDS011;59251;51.326;12.370;2023-10-13T13:37:43;10.00;;;4.05;;
71435;SDS011;59251;51.326;12.370;2023-10-13T13:40:10;16.30;;;5.10;;
71435;SDS011;59251;51.326;12.370;2023-10-13T13:42:42;10.95;;;4.47;;
71435;SDS011;59251;51.326;12.370;2023-10-13T13:45:12;12.18;;;4.93;;
71435;SDS011;59251;51.326;12.370;2023-10-13T13:47:48;11.13;;;4.22;;
71435;SDS011;59251;51.326;12.370;2023-10-13T13:50:19;11.40;;;4.90;;
71435;SDS011;59251;51.326;12.370;2023-10-13T13:52:50;15.57;;;4.97;;
71435;SDS011;59251;51.326;12.370;2023-10-13T13:55:18;11.95;;;4.47;;
71435;SDS011;59251;51.326;12.370;2023-10-13T13:57:45;12.98;;;4.57;;
71435;SDS011;59251;51.326;12.370;2023-10-13T14:00:15;11.68;;;4.18;;
71435;SDS011;59251;51.326;12.370;2023-10-13T14:02:48;12.55;;;4.53;;
71435;SDS011;59251;51.326;12.370;2023-10-13T14:05:15;14.43;;;5.30;;
71435;SDS011;59251;51.326;12.370;2023-10-13T14:07:42;15.10;;;4.55;;
71435;SDS011;59251;51.326;12.370;2023-10-13T14:10:14;11.30;;;5.03;;
71435;SDS011;59251;51.326;12.370;2023-10-13T14:12:56;15.15;;;5.05;;
71435;SDS011;59251;51.326;12.370;2023-10-13T14:15:32;18.00;;;5.00;;
71435;SDS011;59251;51.326;12.370;2023-10-13T14:18:06;15.57;;;4.40;;
71435;SDS011;59251;51.326;12.370;2023-10-13T14:20:40;17.27;;;4.60;;
71435;SDS011;59251;51.326;12.370;2023-10-13T14:23:07;15.35;;;4.47;;
71435;SDS011;59251;51.326;12.370;2023-10-13T14:25:37;15.50;;;4.20;;
71435;SDS011;59251;51.326;12.370;2023-10-13T14:28:09;12.82;;;3.90;;
71435;SDS011;59251;51.326;12.370;2023-10-13T14:30:36;13.87;;;3.97;;
71435;SDS011;59251;51.326;12.370;2023-10-13T14:33:03;10.77;;;4.00;;
71435;SDS011;59251;51.326;12.370;2023-10-13T14:35:37;12.90;;;4.03;;
71435;SDS011;59251;51.326;12.370;2023-10-13T14:38:04;9.98;;;3.67;;
71435;SDS011;59251;51.326;12.370;2023-10-13T14:40:32;11.38;;;4.68;;
71435;SDS011;59251;51.326;12.370;2023-10-13T14:42:59;12.43;;;4.00;;
71435;SDS011;59251;51.326;12.370;2023-10-13T14:45:25;10.30;;;4.00;;
71435;SDS011;59251;51.326;12.370;2023-10-13T14:47:52;12.65;;;3.80;;
71435;SDS011;59251;51.326;12.370;2023-10-13T14:50:19;10.57;;;3.53;;
71435;SDS011;59251;51.326;12.370;2023-10-13T14:52:47;11.75;;;3.58;;
71435;SDS011;59251;51.326;12.370;2023-10-13T14:55:15;12.70;;;4.00;;
71435;SDS011;59251;51.326;12.370;2023-10-13T14:57:45;10.55;;;4.00;;
71435;SDS011;59251;51.326;12.370;2023-10-13T15:00:15;13.40;;;4.35;;